sensor_id;sensor_type;location;lat;lon;timestamp;noise_LAeq;noise_LA_min;noise_LA_max;noise_LA01;noise_LA95
59284;Laerm;45056;47.602;9.886;2023-04-03T00:01:21;42.73;36.45;55.79;;
59284;Laerm;45056;47.602;9.886;2023-04-03T00:03:50;40.03;35.36;47.42;;
59284;Laerm;45056;47.602;9.886;2023-04-03T00:06:19;40.27;35.94;53.95;;
59284;Laerm;45056;47.602;9.886;2023-04-03T00:08:47;39.65;35.66;46.13;;
59284;Laerm;45056;47.602;9.886;2023-04-03T00:11:15;39.42;35.04;48.88;;
59284;Laerm;45056;47.602;9.886;2023-04-03T00:13:45;39.79;35.36;51.19;;
59284;Laerm;45056;47.602;9.886;2023-04-03T00:16:13;40.83;36.20;57.46;;
59284;Laerm;45056;47.602;9.886;2023-04-03T00:18:43;39.24;35.36;46.38;;
59284;Laerm;45056;47.602;9.886;2023-04-03T00:21:13;40.75;35.66;51.82;;
59284;Laerm;45056;47.602;9.886;2023-04-03T00:23:42;40.59;35.94;47.61;;
59284;Laerm;45056;47.602;9.886;2023-04-03T00:26:10;40.91;36.20;53.19;;
59284;Laerm;45056;47.602;9.886;2023-04-03T00:28:38;39.97;35.66;44.80;;
59284;Laerm;45056;47.602;9.886;2023-04-03T00:31:07;43.40;36.20;59.37;;
59284;Laerm;45056;47.602;9.886;2023-04-03T00:33:35;41.16;35.36;60.21;;
59284;Laerm;45056;47.602;9.886;2023-04-03T00:36:09;44.46;35.36;61.66;;
59284;Laerm;45056;47.602;9.886;2023-04-03T00:38:38;40.09;35.94;56.13;;
59284;Laerm;45056;47.602;9.886;2023-04-03T00:41:07;40.04;34.69;59.05;;
59284;Laerm;45056;47.602;9.886;2023-04-03T00:43:36;40.06;35.04;53.39;;
59284;Laerm;45056;47.602;9.886;2023-04-03T00:46:04;41.37;35.66;55.86;;
59284;Laerm;45056;47.602;9.886;2023-04-03T00:48:39;39.36;35.04;50.44;;
59284;Laerm;45056;47.602;9.886;2023-04-03T00:51:16;38.89;34.31;44.69;;
59284;Laerm;45056;47.602;9.886;2023-04-03T00:53:53;41.00;35.04;56.06;;
59284;Laerm;45056;47.602;9.886;2023-04-03T00:56:26;39.18;34.31;44.94;;
59284;Laerm;45056;47.602;9.886;2023-04-03T00:59:02;38.98;35.04;48.64;;
59284;Laerm;45056;47.602;9.886;2023-04-03T01:01:32;43.55;35.36;57.04;;
59284;Laerm;45056;47.602;9.886;2023-04-03T01:04:00;40.49;35.66;51.52;;
59284;Laerm;45056;47.602;9.886;2023-04-03T01:06:35;40.13;35.94;48.81;;
59284;Laerm;45056;47.602;9.886;2023-04-03T01:09:05;39.62;34.69;48.55;;
59284;Laerm;45056;47.602;9.886;2023-04-03T01:11:33;39.95;34.69;52.82;;
59284;Laerm;45056;47.602;9.886;2023-04-03T01:14:02;39.94;34.31;49.29;;
59284;Laerm;45056;47.602;9.886;2023-04-03T01:16:30;40.58;34.31;51.98;;
59284;Laerm;45056;47.602;9.886;2023-04-03T01:19:00;38.99;33.90;50.77;;
59284;Laerm;45056;47.602;9.886;2023-04-03T01:22:05;39.24;35.04;51.26;;
59284;Laerm;45056;47.602;9.886;2023-04-03T01:24:38;39.39;35.36;45.97;;
59284;Laerm;45056;47.602;9.886;2023-04-03T01:27:10;38.63;34.69;43.19;;
59284;Laerm;45056;47.602;9.886;2023-04-03T01:29:41;39.02;34.69;42.03;;
59284;Laerm;45056;47.602;9.886;2023-04-03T01:32:12;40.30;35.04;54.61;;
59284;Laerm;45056;47.602;9.886;2023-04-03T01:34:40;40.13;35.66;49.11;;
59284;Laerm;45056;47.602;9.886;2023-04-03T01:37:08;40.59;36.20;54.59;;
59284;Laerm;45056;47.602;9.886;2023-04-03T01:39:36;40.38;35.04;46.64;;
59284;Laerm;45056;47.602;9.886;2023-04-03T01:42:04;45.21;36.45;60.12;;
59284;Laerm;45056;47.602;9.886;2023-04-03T01:44:32;40.08;35.04;52.83;;
59284;Laerm;45056;47.602;9.886;2023-04-03T01:47:00;44.56;36.20;62.23;;
59284;Laerm;45056;47.602;9.886;2023-04-03T01:49:30;40.61;35.94;47.72;;
59284;Laerm;45056;47.602;9.886;2023-04-03T01:51:58;38.79;33.90;49.70;;
59284;Laerm;45056;47.602;9.886;2023-04-03T01:54:26;38.69;33.90;41.89;;
59284;Laerm;45056;47.602;9.886;2023-04-03T01:56:54;40.05;34.31;57.72;;
59284;Laerm;45056;47.602;9.886;2023-04-03T01:59:22;41.27;34.31;52.61;;
59284;Laerm;45056;47.602;9.886;2023-04-03T02:01:50;43.94;34.69;57.62;;
59284;Laerm;45056;47.602;9.886;2023-04-03T02:04:18;39.48;35.04;47.18;;
59284;Laerm;45056;47.602;9.886;2023-04-03T02:06:48;40.04;35.36;43.94;;
59284;Laerm;45056;47.602;9.886;2023-04-03T02:09:16;39.72;35.04;43.63;;
59284;Laerm;45056;47.602;9.886;2023-04-03T02:11:44;40.28;35.94;43.34;;
59284;Laerm;45056;47.602;9.886;2023-04-03T02:14:12;41.58;36.45;54.02;;
59284;Laerm;45056;47.602;9.886;2023-04-03T02:16:40;40.14;35.36;54.54;;
59284;Laerm;45056;47.602;9.886;2023-04-03T02:19:09;39.68;35.36;48.90;;
59284;Laerm;45056;47.602;9.886;2023-04-03T02:21:37;39.03;35.04;42.03;;
59284;Laerm;45056;47.602;9.886;2023-04-03T02:24:06;40.60;35.04;54.84;;
59284;Laerm;45056;47.602;9.886;2023-04-03T02:26:35;40.58;35.36;50.01;;
59284;Laerm;45056;47.602;9.886;2023-04-03T02:29:03;46.80;35.94;64.10;;
59284;Laerm;45056;47.602;9.886;2023-04-03T02:31:31;40.92;35.66;52.33;;
59284;Laerm;45056;47.602;9.886;2023-04-03T02:33:59;43.15;35.36;55.72;;
59284;Laerm;45056;47.602;9.886;2023-04-03T02:36:27;38.76;35.04;44.97;;
59284;Laerm;45056;47.602;9.886;2023-04-03T02:38:55;39.17;35.66;44.54;;
59284;Laerm;45056;47.602;9.886;2023-04-03T02:41:24;38.77;33.90;43.94;;
59284;Laerm;45056;47.602;9.886;2023-04-03T02:43:58;40.42;35.36;43.24;;
59284;Laerm;45056;47.602;9.886;2023-04-03T02:46:26;45.05;37.12;61.95;;
59284;Laerm;45056;47.602;9.886;2023-04-03T02:48:54;42.25;35.66;54.26;;
59284;Laerm;45056;47.602;9.886;2023-04-03T02:51:23;40.53;35.36;52.62;;
59284;Laerm;45056;47.602;9.886;2023-04-03T02:53:51;45.32;35.66;58.83;;
59284;Laerm;45056;47.602;9.886;2023-04-03T02:56:19;42.88;36.45;57.47;;
59284;Laerm;45056;47.602;9.886;2023-04-03T02:58:48;45.48;36.45;59.06;;
59284;Laerm;45056;47.602;9.886;2023-04-03T03:01:16;45.77;36.69;57.37;;
59284;Laerm;45056;47.602;9.886;2023-04-03T03:03:44;42.43;35.94;57.79;;
59284;Laerm;45056;47.602;9.886;2023-04-03T03:06:16;41.34;35.94;51.91;;
59284;Laerm;45056;47.602;9.886;2023-04-03T03:08:44;41.77;36.45;49.74;;
59284;Laerm;45056;47.602;9.886;2023-04-03T03:11:12;42.46;38.37;55.56;;
59284;Laerm;45056;47.602;9.886;2023-04-03T03:13:41;46.99;37.88;61.47;;
59284;Laerm;45056;47.602;9.886;2023-04-03T03:16:10;42.73;37.32;54.13;;
59284;Laerm;45056;47.602;9.886;2023-04-03T03:18:38;46.52;38.05;60.32;;
59284;Laerm;45056;47.602;9.886;2023-04-03T03:21:06;40.56;37.12;45.04;;
59284;Laerm;45056;47.602;9.886;2023-04-03T03:23:34;45.49;38.05;60.11;;
59284;Laerm;45056;47.602;9.886;2023-04-03T03:26:05;42.45;36.20;54.65;;
59284;Laerm;45056;47.602;9.886;2023-04-03T03:28:35;44.09;36.45;60.61;;
59284;Laerm;45056;47.602;9.886;2023-04-03T03:31:05;44.72;38.81;53.96;;
59284;Laerm;45056;47.602;9.886;2023-04-03T03:33:35;42.57;37.52;55.50;;
59284;Laerm;45056;47.602;9.886;2023-04-03T03:36:03;43.36;36.91;53.74;;
59284;Laerm;45056;47.602;9.886;2023-04-03T03:38:31;47.28;36.45;65.09;;
59284;Laerm;45056;47.602;9.886;2023-04-03T03:40:59;45.62;36.45;59.53;;
59284;Laerm;45056;47.602;9.886;2023-04-03T03:43:28;44.21;36.91;57.31;;
59284;Laerm;45056;47.602;9.886;2023-04-03T03:45:57;46.21;38.95;56.64;;
59284;Laerm;45056;47.602;9.886;2023-04-03T03:48:25;44.54;38.21;54.88;;
59284;Laerm;45056;47.602;9.886;2023-04-03T03:50:54;47.83;39.34;62.31;;
59284;Laerm;45056;47.602;9.886;2023-04-03T03:53:22;44.58;38.05;55.22;;
59284;Laerm;45056;47.602;9.886;2023-04-03T03:55:50;45.37;38.05;57.94;;
59284;Laerm;45056;47.602;9.886;2023-04-03T03:58:19;45.95;38.95;56.50;;
59284;Laerm;45056;47.602;9.886;2023-04-03T04:00:47;47.21;39.46;56.97;;
59284;Laerm;45056;47.602;9.886;2023-04-03T04:03:15;53.87;39.58;66.29;;
59284;Laerm;45056;47.602;9.886;2023-04-03T04:05:43;47.29;37.70;62.85;;
59284;Laerm;45056;47.602;9.886;2023-04-03T04:08:13;44.52;39.08;55.16;;
59284;Laerm;45056;47.602;9.886;2023-04-03T04:10:41;48.71;38.05;66.11;;
59284;Laerm;45056;47.602;9.886;2023-04-03T04:13:09;44.06;38.52;55.67;;
59284;Laerm;45056;47.602;9.886;2023-04-03T04:15:37;45.07;37.88;57.63;;
59284;Laerm;45056;47.602;9.886;2023-04-03T04:18:05;45.53;38.05;58.87;;
59284;Laerm;45056;47.602;9.886;2023-04-03T04:20:33;46.82;37.32;56.53;;
59284;Laerm;45056;47.602;9.886;2023-04-03T04:23:01;47.07;38.21;61.59;;
59284;Laerm;45056;47.602;9.886;2023-04-03T04:25:31;45.41;38.52;56.89;;
59284;Laerm;45056;47.602;9.886;2023-04-03T04:27:59;45.90;39.21;56.44;;
59284;Laerm;45056;47.602;9.886;2023-04-03T04:30:27;47.14;38.47;58.28;;
59284;Laerm;45056;47.602;9.886;2023-04-03T04:32:55;46.49;38.95;59.54;;
59284;Laerm;45056;47.602;9.886;2023-04-03T04:35:23;50.05;40.43;66.13;;
59284;Laerm;45056;47.602;9.886;2023-04-03T04:37:51;44.24;39.34;52.95;;
59284;Laerm;45056;47.602;9.886;2023-04-03T04:40:19;45.13;38.81;55.45;;
59284;Laerm;45056;47.602;9.886;2023-04-03T04:42:48;48.57;39.81;58.90;;
59284;Laerm;45056;47.602;9.886;2023-04-03T04:45:17;47.02;39.21;59.70;;
59284;Laerm;45056;47.602;9.886;2023-04-03T04:47:45;46.13;39.46;59.30;;
59284;Laerm;45056;47.602;9.886;2023-04-03T04:50:13;49.47;39.70;63.52;;
59284;Laerm;45056;47.602;9.886;2023-04-03T04:52:41;46.75;38.81;58.90;;
59284;Laerm;45056;47.602;9.886;2023-04-03T04:55:09;48.05;38.21;61.51;;
59284;Laerm;45056;47.602;9.886;2023-04-03T04:57:37;46.96;39.21;59.95;;
59284;Laerm;45056;47.602;9.886;2023-04-03T05:00:08;49.76;40.63;62.22;;
59284;Laerm;45056;47.602;9.886;2023-04-03T05:02:36;47.47;41.14;57.72;;
59284;Laerm;45056;47.602;9.886;2023-04-03T05:05:05;45.71;39.81;57.61;;
59284;Laerm;45056;47.602;9.886;2023-04-03T05:07:33;47.18;40.62;58.70;;
59284;Laerm;45056;47.602;9.886;2023-04-03T05:10:03;44.52;37.70;57.01;;
59284;Laerm;45056;47.602;9.886;2023-04-03T05:12:32;48.00;40.71;60.50;;
59284;Laerm;45056;47.602;9.886;2023-04-03T05:15:01;46.50;39.81;58.25;;
59284;Laerm;45056;47.602;9.886;2023-04-03T05:17:30;50.56;39.70;66.53;;
59284;Laerm;45056;47.602;9.886;2023-04-03T05:19:58;47.09;39.81;55.76;;
59284;Laerm;45056;47.602;9.886;2023-04-03T05:22:26;49.10;40.71;60.80;;
59284;Laerm;45056;47.602;9.886;2023-04-03T05:24:54;47.62;39.34;58.28;;
59284;Laerm;45056;47.602;9.886;2023-04-03T05:27:23;47.72;40.98;57.94;;
59284;Laerm;45056;47.602;9.886;2023-04-03T05:29:53;47.94;39.70;63.28;;
59284;Laerm;45056;47.602;9.886;2023-04-03T05:32:21;48.54;40.98;61.63;;
59284;Laerm;45056;47.602;9.886;2023-04-03T05:34:51;46.89;39.81;55.83;;
59284;Laerm;45056;47.602;9.886;2023-04-03T05:37:19;46.77;40.03;55.65;;
59284;Laerm;45056;47.602;9.886;2023-04-03T05:39:47;46.90;41.38;56.88;;
59284;Laerm;45056;47.602;9.886;2023-04-03T05:42:16;47.23;40.43;60.15;;
59284;Laerm;45056;47.602;9.886;2023-04-03T05:44:44;47.03;41.14;60.10;;
59284;Laerm;45056;47.602;9.886;2023-04-03T05:47:13;47.36;40.80;57.00;;
59284;Laerm;45056;47.602;9.886;2023-04-03T05:49:42;47.04;40.53;59.71;;
59284;Laerm;45056;47.602;9.886;2023-04-03T05:52:22;48.82;42.09;56.83;;
59284;Laerm;45056;47.602;9.886;2023-04-03T05:54:51;49.80;40.43;64.33;;
59284;Laerm;45056;47.602;9.886;2023-04-03T05:57:19;47.64;40.62;63.73;;
59284;Laerm;45056;47.602;9.886;2023-04-03T05:59:48;46.41;39.58;57.80;;
59284;Laerm;45056;47.602;9.886;2023-04-03T06:02:20;54.36;41.46;74.48;;
59284;Laerm;45056;47.602;9.886;2023-04-03T06:04:48;45.53;40.53;54.64;;
59284;Laerm;45056;47.602;9.886;2023-04-03T06:07:20;47.24;39.08;56.98;;
59284;Laerm;45056;47.602;9.886;2023-04-03T06:09:51;47.43;40.08;59.37;;
59284;Laerm;45056;47.602;9.886;2023-04-03T06:12:19;51.60;41.68;65.87;;
59284;Laerm;45056;47.602;9.886;2023-04-03T06:14:47;48.45;40.89;60.68;;
59284;Laerm;45056;47.602;9.886;2023-04-03T06:17:16;47.43;40.43;58.29;;
59284;Laerm;45056;47.602;9.886;2023-04-03T06:19:45;47.45;39.81;55.83;;
59284;Laerm;45056;47.602;9.886;2023-04-03T06:22:17;49.08;39.81;64.94;;
59284;Laerm;45056;47.602;9.886;2023-04-03T06:24:45;47.28;40.43;58.34;;
59284;Laerm;45056;47.602;9.886;2023-04-03T06:27:13;48.26;41.06;61.18;;
59284;Laerm;45056;47.602;9.886;2023-04-03T06:29:41;47.27;39.92;56.59;;
59284;Laerm;45056;47.602;9.886;2023-04-03T06:32:09;44.96;38.81;57.44;;
59284;Laerm;45056;47.602;9.886;2023-04-03T06:34:37;47.28;39.81;58.39;;
59284;Laerm;45056;47.602;9.886;2023-04-03T06:37:06;48.51;40.23;64.41;;
59284;Laerm;45056;47.602;9.886;2023-04-03T06:39:35;44.95;38.95;54.13;;
59284;Laerm;45056;47.602;9.886;2023-04-03T06:42:04;46.24;39.70;55.21;;
59284;Laerm;45056;47.602;9.886;2023-04-03T06:44:32;47.16;38.81;57.46;;
59284;Laerm;45056;47.602;9.886;2023-04-03T06:47:01;49.53;41.61;60.98;;
59284;Laerm;45056;47.602;9.886;2023-04-03T06:49:29;48.38;40.89;59.47;;
59284;Laerm;45056;47.602;9.886;2023-04-03T06:51:58;47.55;41.06;56.71;;
59284;Laerm;45056;47.602;9.886;2023-04-03T06:54:26;45.68;39.70;55.62;;
59284;Laerm;45056;47.602;9.886;2023-04-03T06:56:55;48.07;40.13;62.99;;
59284;Laerm;45056;47.602;9.886;2023-04-03T06:59:23;51.38;40.53;67.22;;
59284;Laerm;45056;47.602;9.886;2023-04-03T07:01:51;48.46;39.34;59.31;;
59284;Laerm;45056;47.602;9.886;2023-04-03T07:04:19;47.45;40.89;57.58;;
59284;Laerm;45056;47.602;9.886;2023-04-03T07:06:48;49.73;41.06;67.98;;
59284;Laerm;45056;47.602;9.886;2023-04-03T07:09:16;44.72;39.34;53.58;;
59284;Laerm;45056;47.602;9.886;2023-04-03T07:11:44;45.94;38.67;56.56;;
59284;Laerm;45056;47.602;9.886;2023-04-03T07:14:13;48.28;39.81;64.19;;
59284;Laerm;45056;47.602;9.886;2023-04-03T07:16:41;46.05;40.23;56.82;;
59284;Laerm;45056;47.602;9.886;2023-04-03T07:19:10;47.85;41.89;59.92;;
59284;Laerm;45056;47.602;9.886;2023-04-03T07:21:38;47.08;40.98;55.52;;
59284;Laerm;45056;47.602;9.886;2023-04-03T07:24:08;48.58;41.38;59.82;;
59284;Laerm;45056;47.602;9.886;2023-04-03T07:26:36;46.80;40.89;55.83;;
59284;Laerm;45056;47.602;9.886;2023-04-03T07:29:04;48.31;40.43;58.96;;
59284;Laerm;45056;47.602;9.886;2023-04-03T07:31:33;48.10;41.14;57.01;;
59284;Laerm;45056;47.602;9.886;2023-04-03T07:34:02;46.07;40.33;54.07;;
59284;Laerm;45056;47.602;9.886;2023-04-03T07:36:29;46.40;39.92;54.05;;
59284;Laerm;45056;47.602;9.886;2023-04-03T07:38:59;45.24;40.33;54.55;;
59284;Laerm;45056;47.602;9.886;2023-04-03T07:41:27;45.76;40.23;54.53;;
59284;Laerm;45056;47.602;9.886;2023-04-03T07:43:56;48.53;41.46;60.47;;
59284;Laerm;45056;47.602;9.886;2023-04-03T07:46:24;47.03;40.62;56.83;;
59284;Laerm;45056;47.602;9.886;2023-04-03T07:48:54;48.17;40.80;63.39;;
59284;Laerm;45056;47.602;9.886;2023-04-03T07:51:22;48.46;41.96;60.26;;
59284;Laerm;45056;47.602;9.886;2023-04-03T07:53:50;51.57;40.62;64.87;;
59284;Laerm;45056;47.602;9.886;2023-04-03T07:56:18;50.63;40.96;62.55;;
59284;Laerm;45056;47.602;9.886;2023-04-03T07:58:47;48.09;41.38;58.78;;
59284;Laerm;45056;47.602;9.886;2023-04-03T08:01:15;50.09;43.44;58.22;;
59284;Laerm;45056;47.602;9.886;2023-04-03T08:03:43;46.78;40.62;56.12;;
59284;Laerm;45056;47.602;9.886;2023-04-03T08:06:12;45.85;39.70;55.30;;
59284;Laerm;45056;47.602;9.886;2023-04-03T08:08:41;46.75;40.23;54.34;;
59284;Laerm;45056;47.602;9.886;2023-04-03T08:11:11;48.03;41.68;55.67;;
59284;Laerm;45056;47.602;9.886;2023-04-03T08:13:39;45.95;39.34;54.27;;
59284;Laerm;45056;47.602;9.886;2023-04-03T08:16:11;46.40;39.08;54.95;;
59284;Laerm;45056;47.602;9.886;2023-04-03T08:18:39;46.45;39.92;56.57;;
59284;Laerm;45056;47.602;9.886;2023-04-03T08:21:09;46.54;40.23;54.87;;
59284;Laerm;45056;47.602;9.886;2023-04-03T08:23:40;50.30;41.61;63.99;;
59284;Laerm;45056;47.602;9.886;2023-04-03T08:26:12;47.87;40.23;60.87;;
59284;Laerm;45056;47.602;9.886;2023-04-03T08:28:40;47.60;39.92;57.22;;
59284;Laerm;45056;47.602;9.886;2023-04-03T08:31:12;48.38;40.43;56.65;;
59284;Laerm;45056;47.602;9.886;2023-04-03T08:33:41;48.95;41.30;61.81;;
59284;Laerm;45056;47.602;9.886;2023-04-03T08:36:19;47.35;40.43;60.61;;
59284;Laerm;45056;47.602;9.886;2023-04-03T08:38:50;46.68;41.14;55.65;;
59284;Laerm;45056;47.602;9.886;2023-04-03T08:41:31;48.08;41.96;58.65;;
59284;Laerm;45056;47.602;9.886;2023-04-03T08:44:23;51.61;40.89;67.98;;
59284;Laerm;45056;47.602;9.886;2023-04-03T08:47:04;51.77;41.22;64.83;;
59284;Laerm;45056;47.602;9.886;2023-04-03T08:49:40;49.75;41.96;64.93;;
59284;Laerm;45056;47.602;9.886;2023-04-03T08:52:23;48.55;40.80;60.80;;
59284;Laerm;45056;47.602;9.886;2023-04-03T08:54:59;48.79;41.22;60.76;;
59284;Laerm;45056;47.602;9.886;2023-04-03T08:57:32;47.53;41.89;55.52;;
59284;Laerm;45056;47.602;9.886;2023-04-03T09:00:19;48.25;40.98;58.05;;
59284;Laerm;45056;47.602;9.886;2023-04-03T09:02:49;47.72;40.33;57.68;;
59284;Laerm;45056;47.602;9.886;2023-04-03T09:05:26;48.16;40.80;62.17;;
59284;Laerm;45056;47.602;9.886;2023-04-03T09:08:09;45.46;40.13;53.29;;
59284;Laerm;45056;47.602;9.886;2023-04-03T09:10:42;49.58;41.61;64.08;;
59284;Laerm;45056;47.602;9.886;2023-04-03T09:13:24;49.72;40.03;62.20;;
59284;Laerm;45056;47.602;9.886;2023-04-03T09:15:57;49.58;40.43;62.83;;
59284;Laerm;45056;47.602;9.886;2023-04-03T09:18:33;47.10;40.33;61.14;;
59284;Laerm;45056;47.602;9.886;2023-04-03T09:21:17;50.06;42.16;64.03;;
59284;Laerm;45056;47.602;9.886;2023-04-03T09:23:51;47.67;41.14;57.75;;
59284;Laerm;45056;47.602;9.886;2023-04-03T09:26:29;47.09;41.61;56.69;;
59284;Laerm;45056;47.602;9.886;2023-04-03T09:29:05;49.46;41.22;63.41;;
59284;Laerm;45056;47.602;9.886;2023-04-03T09:31:39;48.92;41.22;58.63;;
59284;Laerm;45056;47.602;9.886;2023-04-03T09:34:19;48.47;40.33;60.92;;
59284;Laerm;45056;47.602;9.886;2023-04-03T09:36:51;47.43;41.46;58.00;;
59284;Laerm;45056;47.602;9.886;2023-04-03T09:39:22;47.05;41.06;55.34;;
59284;Laerm;45056;47.602;9.886;2023-04-03T09:42:04;48.13;41.14;59.72;;
59284;Laerm;45056;47.602;9.886;2023-04-03T09:44:36;47.08;41.14;57.77;;
59284;Laerm;45056;47.602;9.886;2023-04-03T09:47:23;50.19;40.71;71.30;;
59284;Laerm;45056;47.602;9.886;2023-04-03T09:50:19;49.24;42.03;63.81;;
59284;Laerm;45056;47.602;9.886;2023-04-03T09:52:51;47.69;40.98;57.53;;
59284;Laerm;45056;47.602;9.886;2023-04-03T09:55:21;47.27;41.06;53.69;;
59284;Laerm;45056;47.602;9.886;2023-04-03T09:57:59;45.90;40.13;55.86;;
59284;Laerm;45056;47.602;9.886;2023-04-03T10:00:33;49.64;42.22;61.63;;
59284;Laerm;45056;47.602;9.886;2023-04-03T10:03:03;53.48;39.46;67.46;;
59284;Laerm;45056;47.602;9.886;2023-04-03T10:05:36;60.04;42.59;71.35;;
59284;Laerm;45056;47.602;9.886;2023-04-03T10:08:11;47.19;39.92;56.02;;
59284;Laerm;45056;47.602;9.886;2023-04-03T10:11:06;45.69;40.13;54.31;;
59284;Laerm;45056;47.602;9.886;2023-04-03T10:13:54;47.35;41.96;57.59;;
59284;Laerm;45056;47.602;9.886;2023-04-03T10:16:28;47.08;40.23;56.99;;
59284;Laerm;45056;47.602;9.886;2023-04-03T10:19:32;47.34;40.71;56.55;;
59284;Laerm;45056;47.602;9.886;2023-04-03T10:22:19;45.54;40.03;61.02;;
59284;Laerm;45056;47.602;9.886;2023-04-03T10:25:00;47.08;41.30;57.94;;
59284;Laerm;45056;47.602;9.886;2023-04-03T10:27:47;47.30;40.43;59.52;;
59284;Laerm;45056;47.602;9.886;2023-04-03T10:30:39;46.38;40.33;54.52;;
59284;Laerm;45056;47.602;9.886;2023-04-03T10:33:42;49.30;39.34;69.20;;
59284;Laerm;45056;47.602;9.886;2023-04-03T10:36:32;47.84;39.92;59.73;;
59284;Laerm;45056;47.602;9.886;2023-04-03T10:39:18;47.28;41.38;57.03;;
59284;Laerm;45056;47.602;9.886;2023-04-03T10:42:05;47.78;40.71;57.31;;
59284;Laerm;45056;47.602;9.886;2023-04-03T10:44:55;46.84;40.43;63.34;;
59284;Laerm;45056;47.602;9.886;2023-04-03T10:47:40;48.09;41.06;58.38;;
59284;Laerm;45056;47.602;9.886;2023-04-03T10:50:31;47.80;40.80;60.90;;
59284;Laerm;45056;47.602;9.886;2023-04-03T10:53:18;50.87;41.75;66.70;;
59284;Laerm;45056;47.602;9.886;2023-04-03T10:56:02;47.46;40.80;57.53;;
59284;Laerm;45056;47.602;9.886;2023-04-03T10:58:40;46.47;40.03;56.19;;
59284;Laerm;45056;47.602;9.886;2023-04-03T11:01:19;48.07;41.30;56.98;;
59284;Laerm;45056;47.602;9.886;2023-04-03T11:03:55;46.53;40.53;59.40;;
59284;Laerm;45056;47.602;9.886;2023-04-03T11:06:34;49.24;41.22;61.61;;
59284;Laerm;45056;47.602;9.886;2023-04-03T11:09:19;48.15;41.68;59.03;;
59284;Laerm;45056;47.602;9.886;2023-04-03T11:11:58;47.35;40.53;59.88;;
59284;Laerm;45056;47.602;9.886;2023-04-03T11:14:31;46.45;39.92;56.79;;
59284;Laerm;45056;47.602;9.886;2023-04-03T11:17:28;45.81;40.80;56.79;;
59284;Laerm;45056;47.602;9.886;2023-04-03T11:20:10;47.96;40.71;56.85;;
59284;Laerm;45056;47.602;9.886;2023-04-03T11:22:49;46.60;39.34;55.05;;
59284;Laerm;45056;47.602;9.886;2023-04-03T11:25:24;47.43;40.13;57.87;;
59284;Laerm;45056;47.602;9.886;2023-04-03T11:28:02;48.33;40.13;65.27;;
59284;Laerm;45056;47.602;9.886;2023-04-03T11:30:41;46.28;39.92;58.00;;
59284;Laerm;45056;47.602;9.886;2023-04-03T11:33:44;48.59;41.22;63.92;;
59284;Laerm;45056;47.602;9.886;2023-04-03T11:36:25;47.89;40.80;57.20;;
59284;Laerm;45056;47.602;9.886;2023-04-03T11:39:00;47.78;40.62;56.61;;
59284;Laerm;45056;47.602;9.886;2023-04-03T11:41:33;47.37;41.06;55.14;;
59284;Laerm;45056;47.602;9.886;2023-04-03T11:44:06;48.39;41.06;57.93;;
59284;Laerm;45056;47.602;9.886;2023-04-03T11:46:56;48.16;41.14;56.83;;
59284;Laerm;45056;47.602;9.886;2023-04-03T11:49:59;47.29;39.92;56.91;;
59284;Laerm;45056;47.602;9.886;2023-04-03T11:53:27;50.40;41.46;65.11;;
59284;Laerm;45056;47.602;9.886;2023-04-03T11:59:23;48.73;41.89;57.95;;
59284;Laerm;45056;47.602;9.886;2023-04-03T12:01:52;49.76;40.71;61.86;;
59284;Laerm;45056;47.602;9.886;2023-04-03T12:04:24;48.67;41.22;61.30;;
59284;Laerm;45056;47.602;9.886;2023-04-03T12:07:18;51.56;42.09;64.07;;
59284;Laerm;45056;47.602;9.886;2023-04-03T12:10:15;48.53;42.76;58.53;;
59284;Laerm;45056;47.602;9.886;2023-04-03T12:12:57;50.97;43.29;60.65;;
59284;Laerm;45056;47.602;9.886;2023-04-03T12:15:53;50.28;43.55;64.17;;
59284;Laerm;45056;47.602;9.886;2023-04-03T12:19:00;48.44;41.75;58.11;;
59284;Laerm;45056;47.602;9.886;2023-04-03T12:22:09;49.77;43.58;62.30;;
59284;Laerm;45056;47.602;9.886;2023-04-03T12:24:40;48.01;42.82;56.66;;
59284;Laerm;45056;47.602;9.886;2023-04-03T12:27:28;49.03;42.29;58.36;;
59284;Laerm;45056;47.602;9.886;2023-04-03T12:30:21;48.87;42.22;57.27;;
59284;Laerm;45056;47.602;9.886;2023-04-03T12:33:24;49.93;43.14;60.40;;
59284;Laerm;45056;47.602;9.886;2023-04-03T12:36:08;49.82;42.98;67.17;;
59284;Laerm;45056;47.602;9.886;2023-04-03T12:39:13;54.26;42.47;71.83;;
59284;Laerm;45056;47.602;9.886;2023-04-03T12:41:56;47.52;41.68;56.50;;
59284;Laerm;45056;47.602;9.886;2023-04-03T12:44:56;47.59;40.33;55.84;;
59284;Laerm;45056;47.602;9.886;2023-04-03T12:47:34;48.63;41.38;59.46;;
59284;Laerm;45056;47.602;9.886;2023-04-03T12:50:21;49.11;41.61;60.96;;
59284;Laerm;45056;47.602;9.886;2023-04-03T12:52:59;49.73;42.76;63.16;;
59284;Laerm;45056;47.602;9.886;2023-04-03T12:55:29;48.88;41.68;65.27;;
59284;Laerm;45056;47.602;9.886;2023-04-03T12:58:13;48.49;42.16;60.32;;
59284;Laerm;45056;47.602;9.886;2023-04-03T13:00:43;50.46;42.29;62.60;;
59284;Laerm;45056;47.602;9.886;2023-04-03T13:03:25;48.40;41.96;59.41;;
59284;Laerm;45056;47.602;9.886;2023-04-03T13:05:59;49.43;42.35;58.85;;
59284;Laerm;45056;47.602;9.886;2023-04-03T13:08:28;49.78;41.82;62.93;;
59284;Laerm;45056;47.602;9.886;2023-04-03T13:11:03;50.09;43.24;65.22;;
59284;Laerm;45056;47.602;9.886;2023-04-03T13:13:33;48.26;42.53;55.94;;
59284;Laerm;45056;47.602;9.886;2023-04-03T13:16:10;52.01;41.53;69.74;;
59284;Laerm;45056;47.602;9.886;2023-04-03T13:18:40;50.13;41.53;72.50;;
59284;Laerm;45056;47.602;9.886;2023-04-03T13:21:17;49.74;43.09;60.67;;
59284;Laerm;45056;47.602;9.886;2023-04-03T13:23:52;49.53;42.53;63.40;;
59284;Laerm;45056;47.602;9.886;2023-04-03T13:26:24;47.79;41.53;57.48;;
59284;Laerm;45056;47.602;9.886;2023-04-03T13:29:02;48.92;42.47;63.14;;
59284;Laerm;45056;47.602;9.886;2023-04-03T13:31:35;50.04;42.76;62.62;;
59284;Laerm;45056;47.602;9.886;2023-04-03T13:34:11;47.74;41.46;57.22;;
59284;Laerm;45056;47.602;9.886;2023-04-03T13:36:54;47.14;41.22;55.33;;
59284;Laerm;45056;47.602;9.886;2023-04-03T13:39:26;47.96;41.38;57.37;;
59284;Laerm;45056;47.602;9.886;2023-04-03T13:41:59;48.56;41.26;60.43;;
59284;Laerm;45056;47.602;9.886;2023-04-03T13:44:34;47.43;40.80;59.05;;
59284;Laerm;45056;47.602;9.886;2023-04-03T13:47:19;49.27;41.61;65.11;;
59284;Laerm;45056;47.602;9.886;2023-04-03T13:50:03;48.25;41.53;59.71;;
59284;Laerm;45056;47.602;9.886;2023-04-03T13:52:40;48.22;42.93;56.74;;
59284;Laerm;45056;47.602;9.886;2023-04-03T13:55:21;48.24;42.09;60.00;;
59284;Laerm;45056;47.602;9.886;2023-04-03T13:57:58;49.00;40.62;62.29;;
59284;Laerm;45056;47.602;9.886;2023-04-03T14:00:35;48.92;41.30;58.77;;
59284;Laerm;45056;47.602;9.886;2023-04-03T14:03:19;47.37;41.11;56.49;;
59284;Laerm;45056;47.602;9.886;2023-04-03T14:05:49;47.73;41.14;60.86;;
59284;Laerm;45056;47.602;9.886;2023-04-03T14:08:18;50.62;42.22;65.13;;
59284;Laerm;45056;47.602;9.886;2023-04-03T14:10:47;48.51;41.11;59.06;;
59284;Laerm;45056;47.602;9.886;2023-04-03T14:13:19;53.44;40.71;69.29;;
59284;Laerm;45056;47.602;9.886;2023-04-03T14:15:48;50.74;41.68;59.92;;
59284;Laerm;45056;47.602;9.886;2023-04-03T14:18:20;49.30;41.38;57.52;;
59284;Laerm;45056;47.602;9.886;2023-04-03T14:20:49;49.40;41.68;58.41;;
59284;Laerm;45056;47.602;9.886;2023-04-03T14:23:17;49.86;41.22;64.61;;